sensor_id;sensor_type;location;lat;lon;timestamp;P1;durP1;ratioP1;P2;durP2;ratioP2
78365;SDS011;67641;59.864;30.464;2024-01-25T00:02:16;6.18;;;2.92;;
78365;SDS011;67641;59.864;30.464;2024-01-25T00:04:43;6.80;;;3.20;;
78365;SDS011;67641;59.864;30.464;2024-01-25T00:07:10;6.68;;;3.17;;
78365;SDS011;67641;59.864;30.464;2024-01-25T00:09:36;6.85;;;3.10;;
78365;SDS011;67641;59.864;30.464;2024-01-25T00:12:03;7.90;;;3.33;;
78365;SDS011;67641;59.864;30.464;2024-01-25T00:14:30;12.02;;;3.20;;
78365;SDS011;67641;59.864;30.464;2024-01-25T00:16:56;7.25;;;3.13;;
78365;SDS011;67641;59.864;30.464;2024-01-25T00:19:23;7.28;;;3.72;;
78365;SDS011;67641;59.864;30.464;2024-01-25T00:21:49;11.15;;;3.70;;
78365;SDS011;67641;59.864;30.464;2024-01-25T00:24:16;8.88;;;3.83;;
78365;SDS011;67641;59.864;30.464;2024-01-25T00:26:42;8.68;;;3.35;;
78365;SDS011;67641;59.864;30.464;2024-01-25T00:29:09;4.82;;;3.30;;
78365;SDS011;67641;59.864;30.464;2024-01-25T00:31:35;9.35;;;3.05;;
78365;SDS011;67641;59.864;30.464;2024-01-25T00:34:02;7.25;;;3.60;;
78365;SDS011;67641;59.864;30.464;2024-01-25T00:36:29;7.00;;;3.17;;
78365;SDS011;67641;59.864;30.464;2024-01-25T00:38:56;7.28;;;3.00;;
78365;SDS011;67641;59.864;30.464;2024-01-25T00:41:23;6.82;;;3.50;;
78365;SDS011;67641;59.864;30.464;2024-01-25T00:43:50;6.68;;;3.05;;
78365;SDS011;67641;59.864;30.464;2024-01-25T00:46:17;5.68;;;2.70;;
78365;SDS011;67641;59.864;30.464;2024-01-25T00:48:44;7.65;;;2.92;;
78365;SDS011;67641;59.864;30.464;2024-01-25T00:51:13;7.80;;;3.03;;
78365;SDS011;67641;59.864;30.464;2024-01-25T00:53:44;5.82;;;3.05;;
78365;SDS011;67641;59.864;30.464;2024-01-25T00:56:11;5.85;;;2.75;;
78365;SDS011;67641;59.864;30.464;2024-01-25T00:58:38;6.45;;;2.90;;
78365;SDS011;67641;59.864;30.464;2024-01-25T01:01:04;7.85;;;3.42;;
78365;SDS011;67641;59.864;30.464;2024-01-25T01:03:31;6.65;;;3.00;;
78365;SDS011;67641;59.864;30.464;2024-01-25T01:05:58;6.38;;;3.08;;
78365;SDS011;67641;59.864;30.464;2024-01-25T01:08:25;6.68;;;3.00;;
78365;SDS011;67641;59.864;30.464;2024-01-25T01:10:51;5.50;;;2.40;;
78365;SDS011;67641;59.864;30.464;2024-01-25T01:13:18;5.82;;;2.75;;
78365;SDS011;67641;59.864;30.464;2024-01-25T01:15:44;11.65;;;3.42;;
78365;SDS011;67641;59.864;30.464;2024-01-25T01:18:11;5.72;;;2.83;;
78365;SDS011;67641;59.864;30.464;2024-01-25T01:20:38;7.25;;;2.97;;
78365;SDS011;67641;59.864;30.464;2024-01-25T01:23:04;8.32;;;3.13;;
78365;SDS011;67641;59.864;30.464;2024-01-25T01:25:31;6.22;;;3.03;;
78365;SDS011;67641;59.864;30.464;2024-01-25T01:27:57;7.85;;;3.03;;
78365;SDS011;67641;59.864;30.464;2024-01-25T01:30:24;8.23;;;3.42;;
78365;SDS011;67641;59.864;30.464;2024-01-25T01:32:50;4.78;;;2.75;;
78365;SDS011;67641;59.864;30.464;2024-01-25T01:35:17;10.82;;;3.30;;
78365;SDS011;67641;59.864;30.464;2024-01-25T01:37:43;7.93;;;3.58;;
78365;SDS011;67641;59.864;30.464;2024-01-25T01:40:09;8.30;;;3.30;;
78365;SDS011;67641;59.864;30.464;2024-01-25T01:42:36;9.50;;;3.33;;
78365;SDS011;67641;59.864;30.464;2024-01-25T01:45:03;7.65;;;3.22;;
78365;SDS011;67641;59.864;30.464;2024-01-25T01:47:30;7.75;;;3.10;;
78365;SDS011;67641;59.864;30.464;2024-01-25T01:49:56;6.18;;;3.30;;
78365;SDS011;67641;59.864;30.464;2024-01-25T01:52:23;6.38;;;3.03;;
78365;SDS011;67641;59.864;30.464;2024-01-25T01:54:50;7.30;;;3.47;;
78365;SDS011;67641;59.864;30.464;2024-01-25T01:57:16;13.30;;;3.20;;
78365;SDS011;67641;59.864;30.464;2024-01-25T01:59:43;9.73;;;2.80;;
78365;SDS011;67641;59.864;30.464;2024-01-25T02:02:09;9.10;;;3.17;;
78365;SDS011;67641;59.864;30.464;2024-01-25T02:04:36;7.22;;;2.90;;
78365;SDS011;67641;59.864;30.464;2024-01-25T02:07:02;7.03;;;3.38;;
78365;SDS011;67641;59.864;30.464;2024-01-25T02:09:29;8.38;;;2.90;;
78365;SDS011;67641;59.864;30.464;2024-01-25T02:12:00;6.78;;;3.15;;
78365;SDS011;67641;59.864;30.464;2024-01-25T02:14:28;6.18;;;2.95;;
78365;SDS011;67641;59.864;30.464;2024-01-25T02:16:54;9.60;;;3.10;;
78365;SDS011;67641;59.864;30.464;2024-01-25T02:19:21;8.27;;;2.80;;
78365;SDS011;67641;59.864;30.464;2024-01-25T02:21:47;9.77;;;2.88;;
78365;SDS011;67641;59.864;30.464;2024-01-25T02:24:15;7.82;;;3.15;;
78365;SDS011;67641;59.864;30.464;2024-01-25T02:26:41;4.43;;;2.65;;
78365;SDS011;67641;59.864;30.464;2024-01-25T02:29:08;7.22;;;3.33;;
78365;SDS011;67641;59.864;30.464;2024-01-25T02:31:35;5.97;;;2.80;;
78365;SDS011;67641;59.864;30.464;2024-01-25T02:34:02;6.75;;;2.83;;
78365;SDS011;67641;59.864;30.464;2024-01-25T02:36:28;6.43;;;2.60;;
78365;SDS011;67641;59.864;30.464;2024-01-25T02:38:54;5.38;;;2.67;;
78365;SDS011;67641;59.864;30.464;2024-01-25T02:41:21;4.80;;;2.47;;
78365;SDS011;67641;59.864;30.464;2024-01-25T02:43:47;7.75;;;2.80;;
78365;SDS011;67641;59.864;30.464;2024-01-25T02:46:14;8.35;;;3.00;;
78365;SDS011;67641;59.864;30.464;2024-01-25T02:48:40;6.72;;;2.60;;
78365;SDS011;67641;59.864;30.464;2024-01-25T02:51:07;8.52;;;2.88;;
78365;SDS011;67641;59.864;30.464;2024-01-25T02:53:33;6.25;;;2.63;;
78365;SDS011;67641;59.864;30.464;2024-01-25T02:55:59;6.53;;;2.50;;
78365;SDS011;67641;59.864;30.464;2024-01-25T02:58:26;5.65;;;2.70;;
78365;SDS011;67641;59.864;30.464;2024-01-25T03:00:52;10.27;;;3.72;;
78365;SDS011;67641;59.864;30.464;2024-01-25T03:03:18;8.20;;;2.70;;
78365;SDS011;67641;59.864;30.464;2024-01-25T03:05:45;7.50;;;3.20;;
78365;SDS011;67641;59.864;30.464;2024-01-25T03:08:11;7.63;;;2.88;;
78365;SDS011;67641;59.864;30.464;2024-01-25T03:10:38;6.82;;;2.67;;
78365;SDS011;67641;59.864;30.464;2024-01-25T03:13:04;5.97;;;2.88;;
78365;SDS011;67641;59.864;30.464;2024-01-25T03:15:31;6.28;;;3.40;;
78365;SDS011;67641;59.864;30.464;2024-01-25T03:18:00;10.38;;;2.88;;
78365;SDS011;67641;59.864;30.464;2024-01-25T03:20:27;7.05;;;2.90;;
78365;SDS011;67641;59.864;30.464;2024-01-25T03:22:53;9.60;;;3.28;;
78365;SDS011;67641;59.864;30.464;2024-01-25T03:25:20;5.50;;;3.28;;
78365;SDS011;67641;59.864;30.464;2024-01-25T03:27:46;8.05;;;3.45;;
78365;SDS011;67641;59.864;30.464;2024-01-25T03:30:13;5.78;;;2.65;;
78365;SDS011;67641;59.864;30.464;2024-01-25T03:32:39;9.95;;;3.17;;
78365;SDS011;67641;59.864;30.464;2024-01-25T03:35:06;7.07;;;3.22;;
78365;SDS011;67641;59.864;30.464;2024-01-25T03:37:32;5.18;;;3.15;;
78365;SDS011;67641;59.864;30.464;2024-01-25T03:39:59;8.10;;;3.25;;
78365;SDS011;67641;59.864;30.464;2024-01-25T03:42:25;9.23;;;3.28;;
78365;SDS011;67641;59.864;30.464;2024-01-25T03:44:52;10.20;;;3.80;;
78365;SDS011;67641;59.864;30.464;2024-01-25T03:47:18;10.40;;;4.60;;
78365;SDS011;67641;59.864;30.464;2024-01-25T03:49:45;14.48;;;4.60;;
78365;SDS011;67641;59.864;30.464;2024-01-25T03:52:11;9.38;;;4.22;;
78365;SDS011;67641;59.864;30.464;2024-01-25T03:54:38;8.77;;;4.20;;
78365;SDS011;67641;59.864;30.464;2024-01-25T03:57:04;12.43;;;3.80;;
78365;SDS011;67641;59.864;30.464;2024-01-25T03:59:31;7.80;;;3.97;;
78365;SDS011;67641;59.864;30.464;2024-01-25T04:01:57;11.02;;;3.85;;
78365;SDS011;67641;59.864;30.464;2024-01-25T04:04:24;7.60;;;4.03;;
78365;SDS011;67641;59.864;30.464;2024-01-25T04:06:50;11.85;;;4.40;;
78365;SDS011;67641;59.864;30.464;2024-01-25T04:09:17;9.52;;;4.50;;
78365;SDS011;67641;59.864;30.464;2024-01-25T04:11:43;8.98;;;3.92;;
78365;SDS011;67641;59.864;30.464;2024-01-25T04:14:10;12.45;;;4.53;;
78365;SDS011;67641;59.864;30.464;2024-01-25T04:16:36;10.95;;;4.22;;
78365;SDS011;67641;59.864;30.464;2024-01-25T04:19:03;10.90;;;4.13;;
78365;SDS011;67641;59.864;30.464;2024-01-25T04:21:29;9.00;;;3.78;;
78365;SDS011;67641;59.864;30.464;2024-01-25T04:23:55;8.18;;;3.88;;
78365;SDS011;67641;59.864;30.464;2024-01-25T04:26:22;9.43;;;3.88;;
78365;SDS011;67641;59.864;30.464;2024-01-25T04:28:49;8.45;;;2.95;;
78365;SDS011;67641;59.864;30.464;2024-01-25T04:31:16;8.75;;;3.40;;
78365;SDS011;67641;59.864;30.464;2024-01-25T04:33:42;7.85;;;3.10;;
78365;SDS011;67641;59.864;30.464;2024-01-25T04:36:09;8.18;;;3.40;;
78365;SDS011;67641;59.864;30.464;2024-01-25T04:38:35;7.38;;;3.20;;
78365;SDS011;67641;59.864;30.464;2024-01-25T04:41:02;7.82;;;3.25;;
78365;SDS011;67641;59.864;30.464;2024-01-25T04:43:28;7.63;;;3.05;;
78365;SDS011;67641;59.864;30.464;2024-01-25T04:45:59;10.43;;;3.38;;
78365;SDS011;67641;59.864;30.464;2024-01-25T04:48:26;9.20;;;3.60;;
78365;SDS011;67641;59.864;30.464;2024-01-25T04:50:52;8.02;;;3.30;;
78365;SDS011;67641;59.864;30.464;2024-01-25T04:53:19;8.57;;;3.00;;
78365;SDS011;67641;59.864;30.464;2024-01-25T04:55:45;8.20;;;3.17;;
78365;SDS011;67641;59.864;30.464;2024-01-25T04:58:12;6.82;;;3.75;;
78365;SDS011;67641;59.864;30.464;2024-01-25T05:00:38;11.20;;;4.10;;
78365;SDS011;67641;59.864;30.464;2024-01-25T05:03:05;18.85;;;5.43;;
78365;SDS011;67641;59.864;30.464;2024-01-25T05:05:32;23.25;;;7.05;;
78365;SDS011;67641;59.864;30.464;2024-01-25T05:07:58;16.67;;;5.55;;
78365;SDS011;67641;59.864;30.464;2024-01-25T05:10:25;8.05;;;3.95;;
78365;SDS011;67641;59.864;30.464;2024-01-25T05:12:51;7.95;;;4.05;;
78365;SDS011;67641;59.864;30.464;2024-01-25T05:15:18;9.68;;;3.85;;
78365;SDS011;67641;59.864;30.464;2024-01-25T05:17:44;11.25;;;4.38;;
78365;SDS011;67641;59.864;30.464;2024-01-25T05:20:11;16.45;;;3.92;;
78365;SDS011;67641;59.864;30.464;2024-01-25T05:22:39;10.23;;;3.88;;
78365;SDS011;67641;59.864;30.464;2024-01-25T05:25:07;15.25;;;3.92;;
78365;SDS011;67641;59.864;30.464;2024-01-25T05:27:34;11.43;;;4.63;;
78365;SDS011;67641;59.864;30.464;2024-01-25T05:30:00;12.45;;;3.88;;
78365;SDS011;67641;59.864;30.464;2024-01-25T05:32:27;19.23;;;5.15;;
78365;SDS011;67641;59.864;30.464;2024-01-25T05:34:53;12.27;;;4.22;;
78365;SDS011;67641;59.864;30.464;2024-01-25T05:37:20;16.92;;;4.00;;
78365;SDS011;67641;59.864;30.464;2024-01-25T05:39:46;12.23;;;3.85;;
78365;SDS011;67641;59.864;30.464;2024-01-25T05:42:13;12.55;;;3.75;;
78365;SDS011;67641;59.864;30.464;2024-01-25T05:44:40;11.15;;;4.15;;
78365;SDS011;67641;59.864;30.464;2024-01-25T05:47:06;11.90;;;4.00;;
78365;SDS011;67641;59.864;30.464;2024-01-25T05:49:33;10.85;;;3.78;;
78365;SDS011;67641;59.864;30.464;2024-01-25T05:51:59;18.75;;;4.03;;
78365;SDS011;67641;59.864;30.464;2024-01-25T05:54:26;11.10;;;3.80;;
78365;SDS011;67641;59.864;30.464;2024-01-25T05:56:52;8.90;;;3.67;;
78365;SDS011;67641;59.864;30.464;2024-01-25T05:59:19;9.63;;;3.97;;
78365;SDS011;67641;59.864;30.464;2024-01-25T06:01:45;10.00;;;4.38;;
78365;SDS011;67641;59.864;30.464;2024-01-25T06:04:12;12.77;;;3.92;;
78365;SDS011;67641;59.864;30.464;2024-01-25T06:06:38;14.85;;;4.00;;
78365;SDS011;67641;59.864;30.464;2024-01-25T06:09:05;14.77;;;3.75;;
78365;SDS011;67641;59.864;30.464;2024-01-25T06:11:31;13.20;;;3.67;;
78365;SDS011;67641;59.864;30.464;2024-01-25T06:13:59;17.80;;;4.60;;
78365;SDS011;67641;59.864;30.464;2024-01-25T06:16:25;23.35;;;4.68;;
78365;SDS011;67641;59.864;30.464;2024-01-25T06:18:51;16.38;;;4.18;;
78365;SDS011;67641;59.864;30.464;2024-01-25T06:21:18;12.18;;;4.07;;
78365;SDS011;67641;59.864;30.464;2024-01-25T06:23:44;10.98;;;4.13;;
78365;SDS011;67641;59.864;30.464;2024-01-25T06:26:11;19.80;;;4.35;;
78365;SDS011;67641;59.864;30.464;2024-01-25T06:28:37;10.02;;;3.72;;
78365;SDS011;67641;59.864;30.464;2024-01-25T06:31:04;10.73;;;3.85;;
78365;SDS011;67641;59.864;30.464;2024-01-25T06:33:30;17.65;;;4.60;;
78365;SDS011;67641;59.864;30.464;2024-01-25T06:35:57;13.48;;;4.30;;
78365;SDS011;67641;59.864;30.464;2024-01-25T06:38:24;12.98;;;4.32;;
78365;SDS011;67641;59.864;30.464;2024-01-25T06:40:50;17.30;;;4.55;;
78365;SDS011;67641;59.864;30.464;2024-01-25T06:43:16;16.73;;;4.32;;
78365;SDS011;67641;59.864;30.464;2024-01-25T06:45:43;15.85;;;4.43;;
78365;SDS011;67641;59.864;30.464;2024-01-25T06:48:09;10.90;;;3.85;;
78365;SDS011;67641;59.864;30.464;2024-01-25T06:50:36;14.00;;;4.18;;
78365;SDS011;67641;59.864;30.464;2024-01-25T06:53:03;11.52;;;4.35;;
78365;SDS011;67641;59.864;30.464;2024-01-25T06:55:30;20.60;;;4.05;;
78365;SDS011;67641;59.864;30.464;2024-01-25T06:57:56;17.27;;;4.50;;
78365;SDS011;67641;59.864;30.464;2024-01-25T07:00:23;15.98;;;4.20;;
78365;SDS011;67641;59.864;30.464;2024-01-25T07:02:50;12.45;;;4.57;;
78365;SDS011;67641;59.864;30.464;2024-01-25T07:05:16;12.00;;;3.70;;
78365;SDS011;67641;59.864;30.464;2024-01-25T07:07:43;13.57;;;4.63;;
78365;SDS011;67641;59.864;30.464;2024-01-25T07:10:09;19.90;;;4.60;;
78365;SDS011;67641;59.864;30.464;2024-01-25T07:12:35;12.10;;;3.90;;
78365;SDS011;67641;59.864;30.464;2024-01-25T07:15:02;14.82;;;4.38;;
78365;SDS011;67641;59.864;30.464;2024-01-25T07:17:29;12.82;;;4.18;;
78365;SDS011;67641;59.864;30.464;2024-01-25T07:19:55;10.77;;;3.88;;
78365;SDS011;67641;59.864;30.464;2024-01-25T07:22:22;12.10;;;4.43;;
78365;SDS011;67641;59.864;30.464;2024-01-25T07:24:49;9.63;;;3.97;;
78365;SDS011;67641;59.864;30.464;2024-01-25T07:27:15;16.35;;;4.28;;
78365;SDS011;67641;59.864;30.464;2024-01-25T07:29:44;11.02;;;4.13;;
78365;SDS011;67641;59.864;30.464;2024-01-25T07:32:11;14.35;;;4.40;;
78365;SDS011;67641;59.864;30.464;2024-01-25T07:34:38;11.63;;;4.10;;
78365;SDS011;67641;59.864;30.464;2024-01-25T07:37:05;11.95;;;4.05;;
78365;SDS011;67641;59.864;30.464;2024-01-25T07:39:31;13.65;;;4.57;;
78365;SDS011;67641;59.864;30.464;2024-01-25T07:41:57;13.52;;;4.10;;
78365;SDS011;67641;59.864;30.464;2024-01-25T07:44:24;12.50;;;4.20;;
78365;SDS011;67641;59.864;30.464;2024-01-25T07:46:50;10.48;;;4.03;;
78365;SDS011;67641;59.864;30.464;2024-01-25T07:49:17;13.70;;;3.92;;
78365;SDS011;67641;59.864;30.464;2024-01-25T07:51:44;12.68;;;3.40;;
78365;SDS011;67641;59.864;30.464;2024-01-25T07:54:10;10.35;;;3.17;;
78365;SDS011;67641;59.864;30.464;2024-01-25T07:56:39;9.73;;;3.60;;
78365;SDS011;67641;59.864;30.464;2024-01-25T07:59:05;15.90;;;3.70;;
78365;SDS011;67641;59.864;30.464;2024-01-25T08:01:33;9.52;;;3.85;;
78365;SDS011;67641;59.864;30.464;2024-01-25T08:03:59;10.07;;;3.58;;
78365;SDS011;67641;59.864;30.464;2024-01-25T08:06:26;9.10;;;3.45;;
78365;SDS011;67641;59.864;30.464;2024-01-25T08:08:53;11.50;;;3.90;;
78365;SDS011;67641;59.864;30.464;2024-01-25T08:11:19;9.93;;;3.70;;
78365;SDS011;67641;59.864;30.464;2024-01-25T08:13:47;12.95;;;4.35;;
78365;SDS011;67641;59.864;30.464;2024-01-25T08:16:13;11.82;;;3.50;;
78365;SDS011;67641;59.864;30.464;2024-01-25T08:18:45;8.63;;;3.28;;
78365;SDS011;67641;59.864;30.464;2024-01-25T08:21:13;10.82;;;3.42;;
78365;SDS011;67641;59.864;30.464;2024-01-25T08:23:40;12.32;;;3.35;;
78365;SDS011;67641;59.864;30.464;2024-01-25T08:26:07;6.22;;;1.95;;
78365;SDS011;67641;59.864;30.464;2024-01-25T08:28:35;8.70;;;2.70;;
78365;SDS011;67641;59.864;30.464;2024-01-25T08:31:02;3.15;;;1.30;;
78365;SDS011;67641;59.864;30.464;2024-01-25T08:33:28;5.03;;;2.20;;
78365;SDS011;67641;59.864;30.464;2024-01-25T08:35:55;7.28;;;1.85;;
78365;SDS011;67641;59.864;30.464;2024-01-25T08:38:21;6.93;;;1.90;;
78365;SDS011;67641;59.864;30.464;2024-01-25T08:40:48;6.93;;;1.80;;
78365;SDS011;67641;59.864;30.464;2024-01-25T08:43:15;9.88;;;2.00;;
78365;SDS011;67641;59.864;30.464;2024-01-25T08:45:41;7.72;;;2.30;;
78365;SDS011;67641;59.864;30.464;2024-01-25T08:48:09;6.10;;;1.70;;
78365;SDS011;67641;59.864;30.464;2024-01-25T08:50:35;5.72;;;1.60;;
78365;SDS011;67641;59.864;30.464;2024-01-25T08:53:02;5.18;;;1.80;;
78365;SDS011;67641;59.864;30.464;2024-01-25T08:55:31;8.57;;;2.08;;
78365;SDS011;67641;59.864;30.464;2024-01-25T08:57:58;9.23;;;1.73;;
78365;SDS011;67641;59.864;30.464;2024-01-25T09:00:25;8.18;;;1.90;;
78365;SDS011;67641;59.864;30.464;2024-01-25T09:02:52;5.65;;;1.83;;
78365;SDS011;67641;59.864;30.464;2024-01-25T09:05:19;10.68;;;2.38;;
78365;SDS011;67641;59.864;30.464;2024-01-25T09:07:46;10.00;;;1.73;;
78365;SDS011;67641;59.864;30.464;2024-01-25T09:10:13;7.10;;;2.00;;
78365;SDS011;67641;59.864;30.464;2024-01-25T09:12:40;7.57;;;2.00;;
78365;SDS011;67641;59.864;30.464;2024-01-25T09:15:07;8.73;;;2.30;;
78365;SDS011;67641;59.864;30.464;2024-01-25T09:17:34;7.20;;;2.28;;
78365;SDS011;67641;59.864;30.464;2024-01-25T09:20:01;7.43;;;1.60;;
78365;SDS011;67641;59.864;30.464;2024-01-25T09:22:29;7.55;;;1.80;;
78365;SDS011;67641;59.864;30.464;2024-01-25T09:24:55;5.15;;;2.13;;
78365;SDS011;67641;59.864;30.464;2024-01-25T09:27:22;4.32;;;1.77;;
78365;SDS011;67641;59.864;30.464;2024-01-25T09:29:48;7.90;;;2.00;;
78365;SDS011;67641;59.864;30.464;2024-01-25T09:32:15;5.07;;;2.20;;
78365;SDS011;67641;59.864;30.464;2024-01-25T09:34:41;6.50;;;2.15;;
78365;SDS011;67641;59.864;30.464;2024-01-25T09:37:08;5.22;;;2.05;;
78365;SDS011;67641;59.864;30.464;2024-01-25T09:39:35;5.28;;;1.65;;
78365;SDS011;67641;59.864;30.464;2024-01-25T09:42:02;6.70;;;1.90;;
78365;SDS011;67641;59.864;30.464;2024-01-25T09:44:30;6.65;;;1.95;;
78365;SDS011;67641;59.864;30.464;2024-01-25T09:46:57;9.18;;;3.08;;
78365;SDS011;67641;59.864;30.464;2024-01-25T09:49:23;8.10;;;2.58;;
78365;SDS011;67641;59.864;30.464;2024-01-25T09:51:50;8.43;;;3.05;;
78365;SDS011;67641;59.864;30.464;2024-01-25T09:54:17;7.10;;;3.15;;
78365;SDS011;67641;59.864;30.464;2024-01-25T09:56:44;7.68;;;2.80;;
78365;SDS011;67641;59.864;30.464;2024-01-25T09:59:12;8.63;;;2.13;;
78365;SDS011;67641;59.864;30.464;2024-01-25T10:01:38;9.38;;;3.75;;
78365;SDS011;67641;59.864;30.464;2024-01-25T10:04:08;8.07;;;2.45;;
78365;SDS011;67641;59.864;30.464;2024-01-25T10:06:34;6.97;;;1.73;;
78365;SDS011;67641;59.864;30.464;2024-01-25T10:09:01;7.63;;;1.90;;
78365;SDS011;67641;59.864;30.464;2024-01-25T10:11:29;5.50;;;1.90;;
78365;SDS011;67641;59.864;30.464;2024-01-25T10:14:01;8.80;;;1.80;;
78365;SDS011;67641;59.864;30.464;2024-01-25T10:16:29;7.57;;;2.78;;
78365;SDS011;67641;59.864;30.464;2024-01-25T10:18:56;8.80;;;2.40;;
78365;SDS011;67641;59.864;30.464;2024-01-25T10:21:22;7.85;;;2.40;;
78365;SDS011;67641;59.864;30.464;2024-01-25T10:23:49;8.63;;;1.92;;
78365;SDS011;67641;59.864;30.464;2024-01-25T10:26:17;8.40;;;1.60;;
78365;SDS011;67641;59.864;30.464;2024-01-25T10:28:50;4.82;;;1.40;;
78365;SDS011;67641;59.864;30.464;2024-01-25T10:31:18;6.88;;;1.90;;
78365;SDS011;67641;59.864;30.464;2024-01-25T10:33:45;5.40;;;1.70;;
78365;SDS011;67641;59.864;30.464;2024-01-25T10:36:13;6.00;;;1.58;;
78365;SDS011;67641;59.864;30.464;2024-01-25T10:38:40;8.02;;;1.90;;
78365;SDS011;67641;59.864;30.464;2024-01-25T10:41:08;4.97;;;1.65;;
78365;SDS011;67641;59.864;30.464;2024-01-25T10:43:35;7.00;;;1.88;;
78365;SDS011;67641;59.864;30.464;2024-01-25T10:46:02;5.13;;;1.48;;
78365;SDS011;67641;59.864;30.464;2024-01-25T10:48:29;5.10;;;1.80;;
78365;SDS011;67641;59.864;30.464;2024-01-25T10:50:58;3.95;;;1.40;;
78365;SDS011;67641;59.864;30.464;2024-01-25T10:53:29;5.88;;;1.92;;
78365;SDS011;67641;59.864;30.464;2024-01-25T10:55:58;7.28;;;2.00;;
78365;SDS011;67641;59.864;30.464;2024-01-25T10:58:29;5.53;;;1.85;;
78365;SDS011;67641;59.864;30.464;2024-01-25T11:01:01;6.03;;;2.05;;
78365;SDS011;67641;59.864;30.464;2024-01-25T11:03:29;5.72;;;2.13;;
78365;SDS011;67641;59.864;30.464;2024-01-25T11:06:08;5.53;;;1.70;;
78365;SDS011;67641;59.864;30.464;2024-01-25T11:08:39;7.93;;;2.20;;
78365;SDS011;67641;59.864;30.464;2024-01-25T11:11:07;7.35;;;2.28;;
78365;SDS011;67641;59.864;30.464;2024-01-25T11:13:37;7.03;;;2.10;;
78365;SDS011;67641;59.864;30.464;2024-01-25T11:16:15;10.93;;;2.05;;
78365;SDS011;67641;59.864;30.464;2024-01-25T11:18:48;7.15;;;2.00;;
78365;SDS011;67641;59.864;30.464;2024-01-25T11:21:25;6.32;;;2.20;;
78365;SDS011;67641;59.864;30.464;2024-01-25T11:24:02;6.22;;;2.30;;
78365;SDS011;67641;59.864;30.464;2024-01-25T11:26:29;4.80;;;2.15;;
78365;SDS011;67641;59.864;30.464;2024-01-25T11:28:58;5.82;;;2.25;;
78365;SDS011;67641;59.864;30.464;2024-01-25T11:31:28;8.32;;;2.38;;
78365;SDS011;67641;59.864;30.464;2024-01-25T11:33:58;5.72;;;2.33;;
78365;SDS011;67641;59.864;30.464;2024-01-25T11:36:27;4.90;;;1.80;;
78365;SDS011;67641;59.864;30.464;2024-01-25T11:38:54;5.63;;;2.20;;
78365;SDS011;67641;59.864;30.464;2024-01-25T11:41:21;6.47;;;2.00;;
78365;SDS011;67641;59.864;30.464;2024-01-25T11:43:48;6.30;;;2.20;;
78365;SDS011;67641;59.864;30.464;2024-01-25T11:46:15;5.70;;;2.28;;
78365;SDS011;67641;59.864;30.464;2024-01-25T11:48:43;5.82;;;2.30;;
78365;SDS011;67641;59.864;30.464;2024-01-25T11:51:09;6.80;;;2.50;;
78365;SDS011;67641;59.864;30.464;2024-01-25T11:53:39;7.18;;;2.58;;
78365;SDS011;67641;59.864;30.464;2024-01-25T11:56:06;12.35;;;2.72;;
78365;SDS011;67641;59.864;30.464;2024-01-25T11:58:36;7.15;;;2.72;;
78365;SDS011;67641;59.864;30.464;2024-01-25T12:01:05;7.55;;;2.55;;
78365;SDS011;67641;59.864;30.464;2024-01-25T12:03:34;8.18;;;2.60;;
78365;SDS011;67641;59.864;30.464;2024-01-25T12:06:05;6.22;;;2.05;;
78365;SDS011;67641;59.864;30.464;2024-01-25T12:08:32;8.40;;;2.47;;
78365;SDS011;67641;59.864;30.464;2024-01-25T12:11:06;6.93;;;2.55;;
78365;SDS011;67641;59.864;30.464;2024-01-25T12:13:43;7.75;;;2.78;;
78365;SDS011;67641;59.864;30.464;2024-01-25T12:16:10;4.00;;;2.00;;
78365;SDS011;67641;59.864;30.464;2024-01-25T12:18:38;7.10;;;2.55;;
78365;SDS011;67641;59.864;30.464;2024-01-25T12:21:06;9.38;;;2.50;;
78365;SDS011;67641;59.864;30.464;2024-01-25T12:23:33;10.25;;;2.60;;
78365;SDS011;67641;59.864;30.464;2024-01-25T12:26:01;7.68;;;2.65;;
78365;SDS011;67641;59.864;30.464;2024-01-25T12:28:29;8.82;;;2.72;;
78365;SDS011;67641;59.864;30.464;2024-01-25T12:30:56;11.65;;;3.17;;
78365;SDS011;67641;59.864;30.464;2024-01-25T12:33:23;9.55;;;2.70;;
78365;SDS011;67641;59.864;30.464;2024-01-25T12:35:50;7.80;;;2.30;;
78365;SDS011;67641;59.864;30.464;2024-01-25T12:38:16;5.55;;;2.55;;
78365;SDS011;67641;59.864;30.464;2024-01-25T12:40:43;8.63;;;2.92;;
78365;SDS011;67641;59.864;30.464;2024-01-25T12:43:12;8.77;;;2.45;;
78365;SDS011;67641;59.864;30.464;2024-01-25T12:45:39;8.45;;;2.30;;
78365;SDS011;67641;59.864;30.464;2024-01-25T12:48:06;6.40;;;2.55;;
78365;SDS011;67641;59.864;30.464;2024-01-25T12:50:33;12.88;;;2.75;;
78365;SDS011;67641;59.864;30.464;2024-01-25T12:53:01;6.82;;;2.58;;
78365;SDS011;67641;59.864;30.464;2024-01-25T12:55:28;6.25;;;2.63;;
78365;SDS011;67641;59.864;30.464;2024-01-25T12:57:59;7.38;;;2.50;;
78365;SDS011;67641;59.864;30.464;2024-01-25T13:00:25;6.80;;;2.38;;
78365;SDS011;67641;59.864;30.464;2024-01-25T13:02:52;7.03;;;2.80;;
78365;SDS011;67641;59.864;30.464;2024-01-25T13:05:20;8.70;;;2.70;;
78365;SDS011;67641;59.864;30.464;2024-01-25T13:07:46;7.57;;;2.63;;
78365;SDS011;67641;59.864;30.464;2024-01-25T13:10:13;9.52;;;2.40;;
78365;SDS011;67641;59.864;30.464;2024-01-25T13:12:40;7.20;;;2.40;;
78365;SDS011;67641;59.864;30.464;2024-01-25T13:15:07;5.07;;;2.38;;
78365;SDS011;67641;59.864;30.464;2024-01-25T13:17:34;8.57;;;2.40;;
78365;SDS011;67641;59.864;30.464;2024-01-25T13:20:04;6.05;;;2.63;;
78365;SDS011;67641;59.864;30.464;2024-01-25T13:22:34;5.90;;;2.38;;
78365;SDS011;67641;59.864;30.464;2024-01-25T13:25:01;10.82;;;2.92;;
78365;SDS011;67641;59.864;30.464;2024-01-25T13:27:28;9.68;;;3.10;;
78365;SDS011;67641;59.864;30.464;2024-01-25T13:29:55;9.27;;;3.10;;
78365;SDS011;67641;59.864;30.464;2024-01-25T13:32:22;11.00;;;2.97;;
78365;SDS011;67641;59.864;30.464;2024-01-25T13:34:49;6.47;;;2.50;;
78365;SDS011;67641;59.864;30.464;2024-01-25T13:37:16;6.80;;;2.50;;
78365;SDS011;67641;59.864;30.464;2024-01-25T13:39:43;5.88;;;2.70;;
78365;SDS011;67641;59.864;30.464;2024-01-25T13:42:09;5.53;;;2.30;;
78365;SDS011;67641;59.864;30.464;2024-01-25T13:44:36;7.68;;;2.67;;
78365;SDS011;67641;59.864;30.464;2024-01-25T13:47:04;8.32;;;3.00;;
78365;SDS011;67641;59.864;30.464;2024-01-25T13:49:31;8.52;;;2.78;;
78365;SDS011;67641;59.864;30.464;2024-01-25T13:52:00;10.15;;;2.90;;
78365;SDS011;67641;59.864;30.464;2024-01-25T13:54:29;8.77;;;2.55;;
78365;SDS011;67641;59.864;30.464;2024-01-25T13:56:55;9.02;;;2.85;;
78365;SDS011;67641;59.864;30.464;2024-01-25T13:59:22;6.97;;;2.88;;
78365;SDS011;67641;59.864;30.464;2024-01-25T14:01:51;10.75;;;3.42;;
78365;SDS011;67641;59.864;30.464;2024-01-25T14:04:18;9.52;;;3.47;;
78365;SDS011;67641;59.864;30.464;2024-01-25T14:06:45;5.70;;;2.60;;
78365;SDS011;67641;59.864;30.464;2024-01-25T14:09:11;11.45;;;3.42;;
78365;SDS011;67641;59.864;30.464;2024-01-25T14:11:38;9.38;;;3.00;;
78365;SDS011;67641;59.864;30.464;2024-01-25T14:14:05;7.47;;;2.53;;
78365;SDS011;67641;59.864;30.464;2024-01-25T14:16:31;7.80;;;2.83;;
78365;SDS011;67641;59.864;30.464;2024-01-25T14:18:58;8.77;;;3.28;;
78365;SDS011;67641;59.864;30.464;2024-01-25T14:21:24;8.95;;;2.90;;
78365;SDS011;67641;59.864;30.464;2024-01-25T14:23:51;10.25;;;2.50;;
78365;SDS011;67641;59.864;30.464;2024-01-25T14:26:18;6.57;;;2.40;;
78365;SDS011;67641;59.864;30.464;2024-01-25T14:28:44;6.38;;;2.70;;
78365;SDS011;67641;59.864;30.464;2024-01-25T14:31:11;9.10;;;3.00;;